sensor_id;sensor_type;location;lat;lon;timestamp;temperature;humidity
8172;DHT22;4127;47.908;10.850;2023-04-25T00:01:19;6.00;99.90
8172;DHT22;4127;47.908;10.850;2023-04-25T00:03:46;6.00;99.90
8172;DHT22;4127;47.908;10.850;2023-04-25T00:06:14;5.80;99.90
8172;DHT22;4127;47.908;10.850;2023-04-25T00:08:41;6.00;99.90
8172;DHT22;4127;47.908;10.850;2023-04-25T00:11:07;5.80;99.90
8172;DHT22;4127;47.908;10.850;2023-04-25T00:13:34;5.80;99.90
8172;DHT22;4127;47.908;10.850;2023-04-25T00:16:01;5.80;99.90
8172;DHT22;4127;47.908;10.850;2023-04-25T00:18:28;6.00;99.90
8172;DHT22;4127;47.908;10.850;2023-04-25T00:20:55;5.90;99.90
8172;DHT22;4127;47.908;10.850;2023-04-25T00:23:22;5.90;99.90
8172;DHT22;4127;47.908;10.850;2023-04-25T00:25:50;5.90;99.90
8172;DHT22;4127;47.908;10.850;2023-04-25T00:28:17;5.90;99.90
8172;DHT22;4127;47.908;10.850;2023-04-25T00:30:44;6.00;99.90
8172;DHT22;4127;47.908;10.850;2023-04-25T00:33:11;5.80;99.90
8172;DHT22;4127;47.908;10.850;2023-04-25T00:35:38;5.80;99.90
8172;DHT22;4127;47.908;10.850;2023-04-25T00:38:04;5.80;99.90
8172;DHT22;4127;47.908;10.850;2023-04-25T00:40:31;5.70;99.90
8172;DHT22;4127;47.908;10.850;2023-04-25T00:42:58;5.70;99.90
8172;DHT22;4127;47.908;10.850;2023-04-25T00:45:28;5.70;99.90
8172;DHT22;4127;47.908;10.850;2023-04-25T00:47:56;5.70;99.90
8172;DHT22;4127;47.908;10.850;2023-04-25T00:50:24;5.60;99.90
8172;DHT22;4127;47.908;10.850;2023-04-25T00:52:51;5.60;99.90
8172;DHT22;4127;47.908;10.850;2023-04-25T00:55:18;5.60;99.90
8172;DHT22;4127;47.908;10.850;2023-04-25T00:57:46;5.60;99.90
8172;DHT22;4127;47.908;10.850;2023-04-25T01:00:13;5.60;99.90
8172;DHT22;4127;47.908;10.850;2023-04-25T01:02:41;5.60;99.90
8172;DHT22;4127;47.908;10.850;2023-04-25T01:05:09;5.60;99.90
8172;DHT22;4127;47.908;10.850;2023-04-25T01:07:36;5.70;99.90
8172;DHT22;4127;47.908;10.850;2023-04-25T01:10:04;5.50;99.90
8172;DHT22;4127;47.908;10.850;2023-04-25T01:12:31;5.50;99.90
8172;DHT22;4127;47.908;10.850;2023-04-25T01:14:58;5.60;99.90
8172;DHT22;4127;47.908;10.850;2023-04-25T01:17:25;5.50;99.90
8172;DHT22;4127;47.908;10.850;2023-04-25T01:19:53;5.50;99.90
8172;DHT22;4127;47.908;10.850;2023-04-25T01:22:20;5.50;99.90
8172;DHT22;4127;47.908;10.850;2023-04-25T01:24:47;5.50;99.90
8172;DHT22;4127;47.908;10.850;2023-04-25T01:27:15;5.40;99.90
8172;DHT22;4127;47.908;10.850;2023-04-25T01:29:42;5.50;99.90
8172;DHT22;4127;47.908;10.850;2023-04-25T01:32:09;5.60;99.90
8172;DHT22;4127;47.908;10.850;2023-04-25T01:34:36;5.70;99.90
8172;DHT22;4127;47.908;10.850;2023-04-25T01:37:03;5.50;99.90
8172;DHT22;4127;47.908;10.850;2023-04-25T01:39:30;5.50;99.90
8172;DHT22;4127;47.908;10.850;2023-04-25T01:41:58;5.60;99.90
8172;DHT22;4127;47.908;10.850;2023-04-25T01:44:25;5.60;99.90
8172;DHT22;4127;47.908;10.850;2023-04-25T01:46:52;5.60;99.90
8172;DHT22;4127;47.908;10.850;2023-04-25T01:49:19;5.70;99.90
8172;DHT22;4127;47.908;10.850;2023-04-25T01:51:45;5.70;99.90
8172;DHT22;4127;47.908;10.850;2023-04-25T01:54:12;5.90;99.90
8172;DHT22;4127;47.908;10.850;2023-04-25T01:56:39;5.80;99.90
8172;DHT22;4127;47.908;10.850;2023-04-25T01:59:06;5.80;99.90
8172;DHT22;4127;47.908;10.850;2023-04-25T02:01:33;5.80;99.90
8172;DHT22;4127;47.908;10.850;2023-04-25T02:04:00;5.80;99.90
8172;DHT22;4127;47.908;10.850;2023-04-25T02:06:27;5.70;99.90
8172;DHT22;4127;47.908;10.850;2023-04-25T02:08:54;5.80;99.90
8172;DHT22;4127;47.908;10.850;2023-04-25T02:11:20;5.80;99.90
8172;DHT22;4127;47.908;10.850;2023-04-25T02:13:47;5.70;99.90
8172;DHT22;4127;47.908;10.850;2023-04-25T02:16:14;5.70;99.90
8172;DHT22;4127;47.908;10.850;2023-04-25T02:18:41;5.70;99.90
8172;DHT22;4127;47.908;10.850;2023-04-25T02:21:08;5.70;99.90
8172;DHT22;4127;47.908;10.850;2023-04-25T02:23:35;5.70;99.90
8172;DHT22;4127;47.908;10.850;2023-04-25T02:26:02;5.60;99.90
8172;DHT22;4127;47.908;10.850;2023-04-25T02:28:29;5.60;99.90
8172;DHT22;4127;47.908;10.850;2023-04-25T02:30:56;5.50;99.90
8172;DHT22;4127;47.908;10.850;2023-04-25T02:33:22;5.60;99.90
8172;DHT22;4127;47.908;10.850;2023-04-25T02:35:49;5.70;99.90
8172;DHT22;4127;47.908;10.850;2023-04-25T02:38:16;5.70;99.90
8172;DHT22;4127;47.908;10.850;2023-04-25T02:40:43;5.70;99.90
8172;DHT22;4127;47.908;10.850;2023-04-25T02:43:09;5.70;99.90
8172;DHT22;4127;47.908;10.850;2023-04-25T02:45:36;5.60;99.90
8172;DHT22;4127;47.908;10.850;2023-04-25T02:48:04;5.50;99.90
8172;DHT22;4127;47.908;10.850;2023-04-25T02:50:31;5.50;99.90
8172;DHT22;4127;47.908;10.850;2023-04-25T02:52:58;5.60;99.90
8172;DHT22;4127;47.908;10.850;2023-04-25T02:55:25;5.50;99.90
8172;DHT22;4127;47.908;10.850;2023-04-25T02:57:54;5.50;99.90
8172;DHT22;4127;47.908;10.850;2023-04-25T03:00:22;5.50;99.90
8172;DHT22;4127;47.908;10.850;2023-04-25T03:02:49;5.40;99.90
8172;DHT22;4127;47.908;10.850;2023-04-25T03:05:16;5.40;99.90
8172;DHT22;4127;47.908;10.850;2023-04-25T03:07:43;5.30;99.90
8172;DHT22;4127;47.908;10.850;2023-04-25T03:10:12;5.40;99.90
8172;DHT22;4127;47.908;10.850;2023-04-25T03:12:38;5.30;99.90
8172;DHT22;4127;47.908;10.850;2023-04-25T03:15:06;5.30;99.90
8172;DHT22;4127;47.908;10.850;2023-04-25T03:17:32;5.30;99.90
8172;DHT22;4127;47.908;10.850;2023-04-25T03:19:59;5.30;99.90
8172;DHT22;4127;47.908;10.850;2023-04-25T03:22:26;5.30;99.90
8172;DHT22;4127;47.908;10.850;2023-04-25T03:24:53;5.10;99.90
8172;DHT22;4127;47.908;10.850;2023-04-25T03:27:19;5.20;99.90
8172;DHT22;4127;47.908;10.850;2023-04-25T03:29:46;5.20;99.90
8172;DHT22;4127;47.908;10.850;2023-04-25T03:32:13;5.10;99.90
8172;DHT22;4127;47.908;10.850;2023-04-25T03:34:40;5.10;99.90
8172;DHT22;4127;47.908;10.850;2023-04-25T03:37:07;5.10;99.90
8172;DHT22;4127;47.908;10.850;2023-04-25T03:39:34;5.20;99.90
8172;DHT22;4127;47.908;10.850;2023-04-25T03:42:01;5.00;99.90
8172;DHT22;4127;47.908;10.850;2023-04-25T03:44:27;5.10;99.90
8172;DHT22;4127;47.908;10.850;2023-04-25T03:46:54;5.10;99.90
8172;DHT22;4127;47.908;10.850;2023-04-25T03:49:21;5.20;99.90
8172;DHT22;4127;47.908;10.850;2023-04-25T03:51:47;5.20;99.90
8172;DHT22;4127;47.908;10.850;2023-04-25T03:54:14;5.20;99.90
8172;DHT22;4127;47.908;10.850;2023-04-25T03:56:41;5.20;99.90
8172;DHT22;4127;47.908;10.850;2023-04-25T03:59:08;5.10;99.90
8172;DHT22;4127;47.908;10.850;2023-04-25T04:01:34;5.10;99.90
8172;DHT22;4127;47.908;10.850;2023-04-25T04:04:01;5.00;99.90
8172;DHT22;4127;47.908;10.850;2023-04-25T04:06:29;5.00;99.90
8172;DHT22;4127;47.908;10.850;2023-04-25T04:08:56;4.90;99.90
8172;DHT22;4127;47.908;10.850;2023-04-25T04:11:23;4.80;99.90
8172;DHT22;4127;47.908;10.850;2023-04-25T04:13:49;4.80;99.90
8172;DHT22;4127;47.908;10.850;2023-04-25T04:16:17;4.80;99.90
8172;DHT22;4127;47.908;10.850;2023-04-25T04:18:44;4.70;99.90
8172;DHT22;4127;47.908;10.850;2023-04-25T04:21:11;4.80;99.90
8172;DHT22;4127;47.908;10.850;2023-04-25T04:23:38;4.70;99.90
8172;DHT22;4127;47.908;10.850;2023-04-25T04:26:05;4.80;99.90
8172;DHT22;4127;47.908;10.850;2023-04-25T04:28:33;4.70;99.90
8172;DHT22;4127;47.908;10.850;2023-04-25T04:31:00;4.70;99.90
8172;DHT22;4127;47.908;10.850;2023-04-25T04:33:30;4.70;99.90
8172;DHT22;4127;47.908;10.850;2023-04-25T04:35:57;4.70;99.90
8172;DHT22;4127;47.908;10.850;2023-04-25T04:38:24;4.80;99.90
8172;DHT22;4127;47.908;10.850;2023-04-25T04:40:52;4.70;99.90
8172;DHT22;4127;47.908;10.850;2023-04-25T04:43:18;4.70;99.90
8172;DHT22;4127;47.908;10.850;2023-04-25T04:45:45;4.60;99.90
8172;DHT22;4127;47.908;10.850;2023-04-25T04:48:12;4.70;99.90
8172;DHT22;4127;47.908;10.850;2023-04-25T04:50:40;4.70;99.90
8172;DHT22;4127;47.908;10.850;2023-04-25T04:53:09;4.70;99.90
8172;DHT22;4127;47.908;10.850;2023-04-25T04:55:35;4.70;99.90
8172;DHT22;4127;47.908;10.850;2023-04-25T04:58:02;4.70;99.90
8172;DHT22;4127;47.908;10.850;2023-04-25T05:00:29;4.70;99.90
8172;DHT22;4127;47.908;10.850;2023-04-25T05:02:56;4.70;99.90
8172;DHT22;4127;47.908;10.850;2023-04-25T05:05:23;4.80;99.90
8172;DHT22;4127;47.908;10.850;2023-04-25T05:07:50;4.70;99.90
8172;DHT22;4127;47.908;10.850;2023-04-25T05:10:18;4.80;99.90
8172;DHT22;4127;47.908;10.850;2023-04-25T05:12:45;4.80;99.90
8172;DHT22;4127;47.908;10.850;2023-04-25T05:15:12;4.80;99.90
8172;DHT22;4127;47.908;10.850;2023-04-25T05:17:39;4.90;99.90
8172;DHT22;4127;47.908;10.850;2023-04-25T05:20:07;4.90;99.90
8172;DHT22;4127;47.908;10.850;2023-04-25T05:22:35;5.00;99.90
8172;DHT22;4127;47.908;10.850;2023-04-25T05:25:02;5.00;99.90
8172;DHT22;4127;47.908;10.850;2023-04-25T05:27:30;5.10;99.90
8172;DHT22;4127;47.908;10.850;2023-04-25T05:29:57;5.20;99.90
8172;DHT22;4127;47.908;10.850;2023-04-25T05:32:23;5.20;99.90
8172;DHT22;4127;47.908;10.850;2023-04-25T05:34:51;5.30;99.90
8172;DHT22;4127;47.908;10.850;2023-04-25T05:37:18;5.50;99.90
8172;DHT22;4127;47.908;10.850;2023-04-25T05:39:45;5.60;99.90
8172;DHT22;4127;47.908;10.850;2023-04-25T05:42:12;5.80;99.90
8172;DHT22;4127;47.908;10.850;2023-04-25T05:44:38;5.80;99.90
8172;DHT22;4127;47.908;10.850;2023-04-25T05:47:05;5.80;99.90
8172;DHT22;4127;47.908;10.850;2023-04-25T05:49:33;5.80;99.90
8172;DHT22;4127;47.908;10.850;2023-04-25T05:52:00;5.70;99.90
8172;DHT22;4127;47.908;10.850;2023-04-25T05:54:26;5.70;99.90
8172;DHT22;4127;47.908;10.850;2023-04-25T05:56:53;5.90;99.90
8172;DHT22;4127;47.908;10.850;2023-04-25T05:59:20;5.90;99.90
8172;DHT22;4127;47.908;10.850;2023-04-25T06:01:46;6.00;99.90
8172;DHT22;4127;47.908;10.850;2023-04-25T06:04:13;6.10;99.90
8172;DHT22;4127;47.908;10.850;2023-04-25T06:06:40;6.30;99.90
8172;DHT22;4127;47.908;10.850;2023-04-25T06:09:07;6.40;99.90
8172;DHT22;4127;47.908;10.850;2023-04-25T06:11:34;6.60;99.90
8172;DHT22;4127;47.908;10.850;2023-04-25T06:14:00;6.70;99.90
8172;DHT22;4127;47.908;10.850;2023-04-25T06:16:27;6.90;99.90
8172;DHT22;4127;47.908;10.850;2023-04-25T06:18:54;6.80;99.90
8172;DHT22;4127;47.908;10.850;2023-04-25T06:21:21;7.00;99.90
8172;DHT22;4127;47.908;10.850;2023-04-25T06:23:47;7.20;99.90
8172;DHT22;4127;47.908;10.850;2023-04-25T06:26:15;7.20;99.90
8172;DHT22;4127;47.908;10.850;2023-04-25T06:28:42;7.30;99.90
8172;DHT22;4127;47.908;10.850;2023-04-25T06:31:09;7.30;99.90
8172;DHT22;4127;47.908;10.850;2023-04-25T06:33:35;7.30;99.90
8172;DHT22;4127;47.908;10.850;2023-04-25T06:36:02;7.30;99.90
8172;DHT22;4127;47.908;10.850;2023-04-25T06:38:29;7.30;99.90
8172;DHT22;4127;47.908;10.850;2023-04-25T06:40:56;7.30;99.90
8172;DHT22;4127;47.908;10.850;2023-04-25T06:43:23;7.50;99.90
8172;DHT22;4127;47.908;10.850;2023-04-25T06:45:50;7.30;99.90
8172;DHT22;4127;47.908;10.850;2023-04-25T06:48:17;7.40;99.90
8172;DHT22;4127;47.908;10.850;2023-04-25T06:50:43;7.40;99.90
8172;DHT22;4127;47.908;10.850;2023-04-25T06:53:10;7.60;99.90
8172;DHT22;4127;47.908;10.850;2023-04-25T06:55:38;7.60;99.90
8172;DHT22;4127;47.908;10.850;2023-04-25T06:58:05;7.60;99.90
8172;DHT22;4127;47.908;10.850;2023-04-25T07:00:31;7.60;99.90
8172;DHT22;4127;47.908;10.850;2023-04-25T07:03:00;7.80;99.90
8172;DHT22;4127;47.908;10.850;2023-04-25T07:05:27;7.80;99.90
8172;DHT22;4127;47.908;10.850;2023-04-25T07:07:54;7.90;99.90
8172;DHT22;4127;47.908;10.850;2023-04-25T07:10:20;7.80;99.90
8172;DHT22;4127;47.908;10.850;2023-04-25T07:12:47;7.90;99.90
8172;DHT22;4127;47.908;10.850;2023-04-25T07:15:14;8.10;99.90
8172;DHT22;4127;47.908;10.850;2023-04-25T07:17:41;8.20;99.90
8172;DHT22;4127;47.908;10.850;2023-04-25T07:20:09;8.20;99.90
8172;DHT22;4127;47.908;10.850;2023-04-25T07:22:36;8.20;99.90
8172;DHT22;4127;47.908;10.850;2023-04-25T07:25:03;8.40;99.90
8172;DHT22;4127;47.908;10.850;2023-04-25T07:27:31;8.40;99.90
8172;DHT22;4127;47.908;10.850;2023-04-25T07:29:58;8.40;99.90
8172;DHT22;4127;47.908;10.850;2023-04-25T07:32:25;8.50;99.90
8172;DHT22;4127;47.908;10.850;2023-04-25T07:34:53;8.50;99.90
8172;DHT22;4127;47.908;10.850;2023-04-25T07:37:20;8.80;99.90
8172;DHT22;4127;47.908;10.850;2023-04-25T07:39:47;8.80;99.90
8172;DHT22;4127;47.908;10.850;2023-04-25T07:42:14;8.90;99.90
8172;DHT22;4127;47.908;10.850;2023-04-25T07:44:41;9.00;99.90
8172;DHT22;4127;47.908;10.850;2023-04-25T07:47:09;9.00;99.90
8172;DHT22;4127;47.908;10.850;2023-04-25T07:49:38;9.10;99.90
8172;DHT22;4127;47.908;10.850;2023-04-25T07:52:06;9.10;99.90
8172;DHT22;4127;47.908;10.850;2023-04-25T07:54:32;9.10;99.90
8172;DHT22;4127;47.908;10.850;2023-04-25T07:56:59;9.10;99.90
8172;DHT22;4127;47.908;10.850;2023-04-25T07:59:26;9.20;99.10
8172;DHT22;4127;47.908;10.850;2023-04-25T08:01:55;9.40;98.50
8172;DHT22;4127;47.908;10.850;2023-04-25T08:04:24;9.30;98.10
8172;DHT22;4127;47.908;10.850;2023-04-25T08:06:51;9.10;97.70
8172;DHT22;4127;47.908;10.850;2023-04-25T08:09:20;9.10;98.80
8172;DHT22;4127;47.908;10.850;2023-04-25T08:11:47;9.10;99.30
8172;DHT22;4127;47.908;10.850;2023-04-25T08:14:14;9.10;98.10
8172;DHT22;4127;47.908;10.850;2023-04-25T08:16:41;9.20;98.00
8172;DHT22;4127;47.908;10.850;2023-04-25T08:19:09;9.10;98.10
8172;DHT22;4127;47.908;10.850;2023-04-25T08:21:36;9.40;98.90
8172;DHT22;4127;47.908;10.850;2023-04-25T08:24:03;9.30;99.20
8172;DHT22;4127;47.908;10.850;2023-04-25T08:26:30;9.70;99.60
8172;DHT22;4127;47.908;10.850;2023-04-25T08:28:57;9.80;97.90
8172;DHT22;4127;47.908;10.850;2023-04-25T08:31:24;9.80;97.20
8172;DHT22;4127;47.908;10.850;2023-04-25T08:33:50;10.00;97.90
8172;DHT22;4127;47.908;10.850;2023-04-25T08:36:18;9.70;96.90
8172;DHT22;4127;47.908;10.850;2023-04-25T08:39:04;9.60;98.00
8172;DHT22;4127;47.908;10.850;2023-04-25T08:41:31;9.40;98.40
8172;DHT22;4127;47.908;10.850;2023-04-25T08:43:59;9.20;98.00
8172;DHT22;4127;47.908;10.850;2023-04-25T08:46:27;9.60;98.00
8172;DHT22;4127;47.908;10.850;2023-04-25T08:49:00;9.70;97.60
8172;DHT22;4127;47.908;10.850;2023-04-25T08:51:27;9.70;98.70
8172;DHT22;4127;47.908;10.850;2023-04-25T08:54:10;9.70;98.90
8172;DHT22;4127;47.908;10.850;2023-04-25T08:57:00;9.50;98.20
8172;DHT22;4127;47.908;10.850;2023-04-25T08:59:28;9.20;97.30
8172;DHT22;4127;47.908;10.850;2023-04-25T09:01:56;9.10;98.50
8172;DHT22;4127;47.908;10.850;2023-04-25T09:04:23;9.00;99.00
8172;DHT22;4127;47.908;10.850;2023-04-25T09:06:50;9.10;99.50
8172;DHT22;4127;47.908;10.850;2023-04-25T09:09:17;9.10;99.90
8172;DHT22;4127;47.908;10.850;2023-04-25T09:11:44;9.20;99.90
8172;DHT22;4127;47.908;10.850;2023-04-25T09:19:33;9.20;99.90
8172;DHT22;4127;47.908;10.850;2023-04-25T09:22:04;9.20;99.90
8172;DHT22;4127;47.908;10.850;2023-04-25T09:24:41;9.40;99.90
8172;DHT22;4127;47.908;10.850;2023-04-25T09:27:11;9.20;99.90
8172;DHT22;4127;47.908;10.850;2023-04-25T09:29:47;9.10;99.90
8172;DHT22;4127;47.908;10.850;2023-04-25T09:32:30;8.80;99.90
8172;DHT22;4127;47.908;10.850;2023-04-25T09:34:59;8.30;99.90
8172;DHT22;4127;47.908;10.850;2023-04-25T09:37:43;8.10;99.90
8172;DHT22;4127;47.908;10.850;2023-04-25T09:40:12;8.10;99.90
8172;DHT22;4127;47.908;10.850;2023-04-25T09:42:41;8.20;99.90
8172;DHT22;4127;47.908;10.850;2023-04-25T09:45:12;8.40;99.90
8172;DHT22;4127;47.908;10.850;2023-04-25T09:47:40;8.60;99.90
8172;DHT22;4127;47.908;10.850;2023-04-25T09:50:14;8.60;99.90
8172;DHT22;4127;47.908;10.850;2023-04-25T09:52:42;8.50;99.90
8172;DHT22;4127;47.908;10.850;2023-04-25T09:55:09;8.50;99.90
8172;DHT22;4127;47.908;10.850;2023-04-25T09:57:36;8.60;99.90
8172;DHT22;4127;47.908;10.850;2023-04-25T10:00:07;8.60;99.90
8172;DHT22;4127;47.908;10.850;2023-04-25T10:02:38;8.50;99.90
8172;DHT22;4127;47.908;10.850;2023-04-25T10:05:10;8.50;99.90
8172;DHT22;4127;47.908;10.850;2023-04-25T10:07:40;8.20;99.90
8172;DHT22;4127;47.908;10.850;2023-04-25T10:10:12;6.90;99.90
8172;DHT22;4127;47.908;10.850;2023-04-25T10:13:53;6.10;99.90
8172;DHT22;4127;47.908;10.850;2023-04-25T10:16:40;6.00;99.90
8172;DHT22;4127;47.908;10.850;2023-04-25T10:19:08;6.30;99.90
8172;DHT22;4127;47.908;10.850;2023-04-25T10:21:40;6.30;99.90
8172;DHT22;4127;47.908;10.850;2023-04-25T10:24:11;6.30;99.90
8172;DHT22;4127;47.908;10.850;2023-04-25T10:26:50;6.40;99.90
8172;DHT22;4127;47.908;10.850;2023-04-25T10:29:46;6.20;99.90
8172;DHT22;4127;47.908;10.850;2023-04-25T10:32:31;6.20;99.90
8172;DHT22;4127;47.908;10.850;2023-04-25T10:35:15;6.20;99.90
8172;DHT22;4127;47.908;10.850;2023-04-25T10:38:03;6.10;99.90
8172;DHT22;4127;47.908;10.850;2023-04-25T10:40:32;5.70;99.90
8172;DHT22;4127;47.908;10.850;2023-04-25T10:46:03;5.60;99.90
8172;DHT22;4127;47.908;10.850;2023-04-25T10:48:59;5.70;99.90
8172;DHT22;4127;47.908;10.850;2023-04-25T10:51:41;5.80;99.90
8172;DHT22;4127;47.908;10.850;2023-04-25T10:54:17;5.80;99.90
8172;DHT22;4127;47.908;10.850;2023-04-25T10:56:44;6.20;99.90
8172;DHT22;4127;47.908;10.850;2023-04-25T10:59:19;5.90;99.90
8172;DHT22;4127;47.908;10.850;2023-04-25T11:02:11;6.10;99.90
8172;DHT22;4127;47.908;10.850;2023-04-25T11:04:40;6.20;99.90
8172;DHT22;4127;47.908;10.850;2023-04-25T11:07:31;6.50;99.90
8172;DHT22;4127;47.908;10.850;2023-04-25T11:10:04;6.50;99.90
8172;DHT22;4127;47.908;10.850;2023-04-25T11:12:32;6.60;99.90
8172;DHT22;4127;47.908;10.850;2023-04-25T11:15:05;6.60;99.90
8172;DHT22;4127;47.908;10.850;2023-04-25T11:17:33;6.70;99.90
8172;DHT22;4127;47.908;10.850;2023-04-25T11:20:01;6.70;99.90
8172;DHT22;4127;47.908;10.850;2023-04-25T11:22:31;6.60;99.90
8172;DHT22;4127;47.908;10.850;2023-04-25T11:25:09;6.50;99.90
8172;DHT22;4127;47.908;10.850;2023-04-25T11:28:01;6.50;99.90
8172;DHT22;4127;47.908;10.850;2023-04-25T11:31:14;6.60;99.90
8172;DHT22;4127;47.908;10.850;2023-04-25T11:33:42;6.70;99.90
8172;DHT22;4127;47.908;10.850;2023-04-25T11:36:26;6.80;99.90
8172;DHT22;4127;47.908;10.850;2023-04-25T11:39:13;6.70;99.90
8172;DHT22;4127;47.908;10.850;2023-04-25T11:41:42;6.40;99.90
8172;DHT22;4127;47.908;10.850;2023-04-25T11:44:22;6.30;99.90
8172;DHT22;4127;47.908;10.850;2023-04-25T11:46:50;6.50;99.90
8172;DHT22;4127;47.908;10.850;2023-04-25T11:49:38;6.60;99.90
8172;DHT22;4127;47.908;10.850;2023-04-25T11:52:10;6.50;99.90
8172;DHT22;4127;47.908;10.850;2023-04-25T11:55:16;6.50;99.90
8172;DHT22;4127;47.908;10.850;2023-04-25T11:58:00;6.70;99.90
8172;DHT22;4127;47.908;10.850;2023-04-25T12:00:52;6.60;99.90
8172;DHT22;4127;47.908;10.850;2023-04-25T12:03:45;6.40;99.90
8172;DHT22;4127;47.908;10.850;2023-04-25T12:06:38;6.40;99.90
8172;DHT22;4127;47.908;10.850;2023-04-25T12:09:27;6.50;99.90
8172;DHT22;4127;47.908;10.850;2023-04-25T12:12:02;6.40;99.90
8172;DHT22;4127;47.908;10.850;2023-04-25T12:14:32;6.50;99.90
8172;DHT22;4127;47.908;10.850;2023-04-25T12:17:03;6.60;99.90
8172;DHT22;4127;47.908;10.850;2023-04-25T12:19:34;6.60;99.90
8172;DHT22;4127;47.908;10.850;2023-04-25T12:22:22;6.70;99.90
8172;DHT22;4127;47.908;10.850;2023-04-25T12:28:21;6.40;99.90
8172;DHT22;4127;47.908;10.850;2023-04-25T12:30:54;6.40;99.90
8172;DHT22;4127;47.908;10.850;2023-04-25T12:33:22;6.40;99.90
8172;DHT22;4127;47.908;10.850;2023-04-25T12:36:05;6.60;99.90
8172;DHT22;4127;47.908;10.850;2023-04-25T12:39:29;6.50;99.90
8172;DHT22;4127;47.908;10.850;2023-04-25T12:41:58;6.50;99.90
8172;DHT22;4127;47.908;10.850;2023-04-25T12:44:26;6.50;99.90
8172;DHT22;4127;47.908;10.850;2023-04-25T12:46:53;6.70;99.90
8172;DHT22;4127;47.908;10.850;2023-04-25T12:49:22;6.60;99.90
8172;DHT22;4127;47.908;10.850;2023-04-25T12:51:55;6.60;99.90
8172;DHT22;4127;47.908;10.850;2023-04-25T12:55:02;6.40;99.90
8172;DHT22;4127;47.908;10.850;2023-04-25T12:57:32;6.80;99.90
8172;DHT22;4127;47.908;10.850;2023-04-25T12:59:58;6.90;99.90
8172;DHT22;4127;47.908;10.850;2023-04-25T13:02:25;6.90;99.90
8172;DHT22;4127;47.908;10.850;2023-04-25T13:04:53;6.60;99.90
8172;DHT22;4127;47.908;10.850;2023-04-25T13:07:45;6.40;99.90
8172;DHT22;4127;47.908;10.850;2023-04-25T13:10:12;6.20;99.90
8172;DHT22;4127;47.908;10.850;2023-04-25T13:12:42;6.30;99.90
8172;DHT22;4127;47.908;10.850;2023-04-25T13:15:24;6.50;99.90
8172;DHT22;4127;47.908;10.850;2023-04-25T13:18:26;6.50;99.90
8172;DHT22;4127;47.908;10.850;2023-04-25T13:21:09;6.60;99.90
8172;DHT22;4127;47.908;10.850;2023-04-25T13:23:36;6.60;99.90
8172;DHT22;4127;47.908;10.850;2023-04-25T13:26:03;6.80;99.90
8172;DHT22;4127;47.908;10.850;2023-04-25T13:28:48;6.70;99.90
8172;DHT22;4127;47.908;10.850;2023-04-25T13:31:36;6.90;99.90
8172;DHT22;4127;47.908;10.850;2023-04-25T13:34:03;7.00;99.90
8172;DHT22;4127;47.908;10.850;2023-04-25T13:36:32;7.00;99.90
8172;DHT22;4127;47.908;10.850;2023-04-25T13:39:14;7.10;99.90
8172;DHT22;4127;47.908;10.850;2023-04-25T13:46:10;6.90;99.90
8172;DHT22;4127;47.908;10.850;2023-04-25T13:49:01;7.10;99.90
8172;DHT22;4127;47.908;10.850;2023-04-25T13:51:38;7.20;99.90
8172;DHT22;4127;47.908;10.850;2023-04-25T13:54:12;7.20;99.90
8172;DHT22;4127;47.908;10.850;2023-04-25T13:57:11;7.30;99.90
8172;DHT22;4127;47.908;10.850;2023-04-25T14:00:04;7.30;99.90
8172;DHT22;4127;47.908;10.850;2023-04-25T14:02:40;7.20;99.90
8172;DHT22;4127;47.908;10.850;2023-04-25T14:05:07;7.10;99.90
8172;DHT22;4127;47.908;10.850;2023-04-25T14:07:35;7.20;99.90
8172;DHT22;4127;47.908;10.850;2023-04-25T14:10:04;7.30;99.90
8172;DHT22;4127;47.908;10.850;2023-04-25T14:12:32;7.20;99.90
8172;DHT22;4127;47.908;10.850;2023-04-25T14:14:59;7.00;99.90
8172;DHT22;4127;47.908;10.850;2023-04-25T14:17:26;7.10;99.90
8172;DHT22;4127;47.908;10.850;2023-04-25T14:19:53;7.10;99.90
8172;DHT22;4127;47.908;10.850;2023-04-25T14:22:20;7.10;99.90
8172;DHT22;4127;47.908;10.850;2023-04-25T14:24:47;7.40;99.90
8172;DHT22;4127;47.908;10.850;2023-04-25T14:27:13;7.10;99.90
8172;DHT22;4127;47.908;10.850;2023-04-25T14:29:40;7.20;99.90
8172;DHT22;4127;47.908;10.850;2023-04-25T14:32:07;7.00;99.90
8172;DHT22;4127;47.908;10.850;2023-04-25T14:34:34;6.90;99.90
8172;DHT22;4127;47.908;10.850;2023-04-25T14:37:01;6.90;99.90
8172;DHT22;4127;47.908;10.850;2023-04-25T14:39:28;7.10;99.90
8172;DHT22;4127;47.908;10.850;2023-04-25T14:41:55;7.10;99.90
8172;DHT22;4127;47.908;10.850;2023-04-25T14:44:22;7.30;99.90
8172;DHT22;4127;47.908;10.850;2023-04-25T14:46:49;7.20;99.90
8172;DHT22;4127;47.908;10.850;2023-04-25T14:49:18;7.20;99.90
8172;DHT22;4127;47.908;10.850;2023-04-25T14:51:45;7.10;99.90
8172;DHT22;4127;47.908;10.850;2023-04-25T14:54:11;7.00;99.90
8172;DHT22;4127;47.908;10.850;2023-04-25T14:56:38;6.90;99.90
8172;DHT22;4127;47.908;10.850;2023-04-25T14:59:05;6.90;99.90
8172;DHT22;4127;47.908;10.850;2023-04-25T15:01:32;7.00;99.90
8172;DHT22;4127;47.908;10.850;2023-04-25T15:03:59;7.00;99.90
8172;DHT22;4127;47.908;10.850;2023-04-25T15:06:26;7.00;99.90
8172;DHT22;4127;47.908;10.850;2023-04-25T15:08:56;7.10;99.90
8172;DHT22;4127;47.908;10.850;2023-04-25T15:11:23;7.10;99.90
8172;DHT22;4127;47.908;10.850;2023-04-25T15:13:50;7.10;99.90
8172;DHT22;4127;47.908;10.850;2023-04-25T15:16:17;7.10;99.90
8172;DHT22;4127;47.908;10.850;2023-04-25T15:18:44;7.00;99.90
8172;DHT22;4127;47.908;10.850;2023-04-25T15:21:10;6.80;99.90
8172;DHT22;4127;47.908;10.850;2023-04-25T15:23:37;7.00;99.90
8172;DHT22;4127;47.908;10.850;2023-04-25T15:26:04;7.10;99.90
8172;DHT22;4127;47.908;10.850;2023-04-25T15:28:31;6.90;99.90
8172;DHT22;4127;47.908;10.850;2023-04-25T15:31:00;7.00;99.90
8172;DHT22;4127;47.908;10.850;2023-04-25T15:33:27;6.90;99.90
8172;DHT22;4127;47.908;10.850;2023-04-25T15:35:53;7.00;99.90
8172;DHT22;4127;47.908;10.850;2023-04-25T15:38:20;7.00;99.90
8172;DHT22;4127;47.908;10.850;2023-04-25T15:40:47;7.00;99.90
8172;DHT22;4127;47.908;10.850;2023-04-25T15:43:14;6.90;99.90
8172;DHT22;4127;47.908;10.850;2023-04-25T15:45:42;6.90;99.90
8172;DHT22;4127;47.908;10.850;2023-04-25T15:48:09;6.80;99.90
8172;DHT22;4127;47.908;10.850;2023-04-25T15:50:36;6.80;99.90
8172;DHT22;4127;47.908;10.850;2023-04-25T15:53:03;6.90;99.90
8172;DHT22;4127;47.908;10.850;2023-04-25T15:55:33;6.90;99.90
8172;DHT22;4127;47.908;10.850;2023-04-25T15:58:00;7.00;99.90
8172;DHT22;4127;47.908;10.850;2023-04-25T16:00:27;7.00;99.90
8172;DHT22;4127;47.908;10.850;2023-04-25T16:02:54;7.10;99.90
8172;DHT22;4127;47.908;10.850;2023-04-25T16:05:21;7.10;99.90
8172;DHT22;4127;47.908;10.850;2023-04-25T16:07:49;7.00;99.90
8172;DHT22;4127;47.908;10.850;2023-04-25T16:10:17;6.90;99.90
8172;DHT22;4127;47.908;10.850;2023-04-25T16:12:45;7.00;99.90
8172;DHT22;4127;47.908;10.850;2023-04-25T16:15:14;7.10;99.90
8172;DHT22;4127;47.908;10.850;2023-04-25T16:17:41;7.00;99.90
8172;DHT22;4127;47.908;10.850;2023-04-25T16:20:08;6.90;99.90
8172;DHT22;4127;47.908;10.850;2023-04-25T16:22:37;7.10;99.90
8172;DHT22;4127;47.908;10.850;2023-04-25T16:25:05;7.10;99.90
8172;DHT22;4127;47.908;10.850;2023-04-25T16:27:32;7.10;99.90
8172;DHT22;4127;47.908;10.850;2023-04-25T16:30:02;6.90;99.90
8172;DHT22;4127;47.908;10.850;2023-04-25T16:32:29;7.10;99.90
8172;DHT22;4127;47.908;10.850;2023-04-25T16:34:56;7.10;99.90
8172;DHT22;4127;47.908;10.850;2023-04-25T16:37:24;7.00;99.90